Main page
METAR-TAF:

METAR-TAF

Airports :

Effingham County Memorial Airport

Effingham, Illinois, United States

latitude: 39-04-14N, longitude: 088-32-00W, elevation: 587 ft

Current weather observation

The report was made 32 minutes ago, at 11:35 UTC
Wind 5 mph from the East
Temperature 59°F
Humidity 100%
Pressure 29.99 in. Hg
Visibility: 5 miles
Scattered clouds at a height of 3100 ft
Broken clouds at a height of 4700 ft
Overcast at a height of 7000 ft
light rain

METAR: K1H2 231135Z AUTO 09004KT 5SM -RA SCT031 BKN047 OVC070 15/15 A2999 RMK AO2 LTG DSNT E SE AND NW P0011 T01520148

Time: 07:07 (12:07 UTC)


TAF: missing

Weather observations and forecasts of more than 4000 airports (METAR and TAF reports).

The available stations are represented by yellow and red dots on the map.

Hover mouse over dot to see the name of the station.

Then click to see weather observations and forecasts.

To change the map : click on the green buttons with a black cross to zoom in, on the green button with a dash to zoom out, or on the green arrows for adjacent maps.


METAR-TAF: